TimeEDT,TemperatureF,Dew PointF,Humidity,Sea Level PressureIn,VisibilityMPH,Wind Direction,Wind SpeedMPH,Gust SpeedMPH,PrecipitationIn,Events,Conditions,WindDirDegrees,DateUTC
12:15 AM,71.6,57.2,60,30.15,10.0,South,6.9,-,N/A,,Overcast,170,2013-06-23 04:15:00
12:35 AM,71.6,57.2,60,30.15,10.0,South,6.9,-,N/A,,Mostly Cloudy,170,2013-06-23 04:35:00
12:55 AM,71.6,57.2,60,30.15,10.0,South,8.1,-,N/A,,Mostly Cloudy,170,2013-06-23 04:55:00
1:15 AM,69.8,57.2,64,30.15,10.0,South,8.1,-,N/A,,Mostly Cloudy,170,2013-06-23 05:15:00
1:35 AM,69.8,57.2,64,30.15,10.0,South,5.8,-,N/A,,Scattered Clouds,170,2013-06-23 05:35:00
1:55 AM,69.8,57.2,64,30.13,10.0,South,6.9,-,N/A,,Scattered Clouds,180,2013-06-23 05:55:00
2:15 AM,68.0,57.2,68,30.14,10.0,Calm,Calm,-,N/A,,Scattered Clouds,0,2013-06-23 06:15:00
2:35 AM,66.2,57.2,73,30.13,10.0,South,5.8,-,N/A,,Scattered Clouds,170,2013-06-23 06:35:00
2:55 AM,68.0,55.4,64,30.13,10.0,South,3.5,-,N/A,,Clear,180,2013-06-23 06:55:00
3:15 AM,66.2,55.4,68,30.13,10.0,South,5.8,-,N/A,,Clear,170,2013-06-23 07:15:00
3:35 AM,66.2,55.4,68,30.13,10.0,South,4.6,-,N/A,,Clear,180,2013-06-23 07:35:00
3:55 AM,64.4,55.4,73,30.12,10.0,South,3.5,-,N/A,,Clear,170,2013-06-23 07:55:00
4:15 AM,64.4,55.4,73,30.12,10.0,SSW,4.6,-,N/A,,Clear,210,2013-06-23 08:15:00
4:35 AM,62.6,55.4,77,30.12,10.0,Calm,Calm,-,N/A,,Clear,0,2013-06-23 08:35:00
4:55 AM,62.6,55.4,77,30.12,10.0,Calm,Calm,-,N/A,,Partly Cloudy,0,2013-06-23 08:55:00
5:15 AM,62.6,55.4,77,30.13,10.0,Calm,Calm,-,N/A,,Mostly Cloudy,0,2013-06-23 09:15:00
5:35 AM,64.4,55.4,73,30.12,10.0,Calm,Calm,-,N/A,,Mostly Cloudy,0,2013-06-23 09:35:00
5:55 AM,64.4,57.2,77,30.13,10.0,Calm,Calm,-,N/A,,Mostly Cloudy,0,2013-06-23 09:55:00
6:15 AM,64.4,57.2,77,30.13,10.0,Calm,Calm,-,N/A,,Scattered Clouds,0,2013-06-23 10:15:00
6:55 AM,66.2,57.2,73,30.14,10.0,South,4.6,-,N/A,,Partly Cloudy,190,2013-06-23 10:55:00
7:15 AM,66.2,57.2,73,30.14,10.0,South,5.8,-,N/A,,Mostly Cloudy,190,2013-06-23 11:15:00
7:35 AM,68.0,57.2,68,30.15,10.0,SSW,4.6,-,N/A,,Scattered Clouds,200,2013-06-23 11:35:00
7:55 AM,68.0,55.4,64,30.15,10.0,South,4.6,-,N/A,,Clear,190,2013-06-23 11:55:00
8:15 AM,68.0,55.4,64,30.15,10.0,South,4.6,-,N/A,,Mostly Cloudy,180,2013-06-23 12:15:00
8:35 AM,69.8,57.2,64,30.15,10.0,South,5.8,-,N/A,,Mostly Cloudy,190,2013-06-23 12:35:00
8:55 AM,71.6,57.2,60,30.14,10.0,SSW,5.8,-,N/A,,Partly Cloudy,200,2013-06-23 12:55:00
9:15 AM,73.4,59.0,61,30.14,10.0,South,6.9,-,N/A,,Clear,180,2013-06-23 13:15:00
9:35 AM,73.4,60.8,65,30.13,10.0,South,5.8,-,N/A,,Clear,190,2013-06-23 13:35:00
9:55 AM,75.2,60.8,61,30.12,10.0,SW,8.1,-,N/A,,Partly Cloudy,230,2013-06-23 13:55:00
10:15 AM,75.2,62.6,65,30.11,10.0,South,4.6,-,N/A,,Clear,170,2013-06-23 14:15:00
10:35 AM,77.0,62.6,61,30.11,10.0,SW,8.1,-,N/A,,Scattered Clouds,220,2013-06-23 14:35:00
10:55 AM,77.0,62.6,61,30.11,10.0,WNW,4.6,-,N/A,,Scattered Clouds,300,2013-06-23 14:55:00
11:15 AM,78.8,64.4,61,30.11,10.0,NNE,5.8,-,N/A,,Partly Cloudy,20,2013-06-23 15:15:00
11:35 AM,78.8,64.4,61,30.10,10.0,WSW,3.5,-,N/A,,Partly Cloudy,240,2013-06-23 15:35:00
11:55 AM,82.4,64.4,54,30.09,10.0,West,3.5,-,N/A,,Clear,260,2013-06-23 15:55:00
12:35 PM,86.0,66.2,51,30.08,10.0,SSW,11.5,-,N/A,,Clear,200,2013-06-23 16:35:00
12:55 PM,86.0,66.2,51,30.06,10.0,SSW,11.5,-,N/A,,Clear,200,2013-06-23 16:55:00
1:15 PM,87.8,66.2,49,30.06,10.0,SW,12.7,16.1,N/A,,Clear,230,2013-06-23 17:15:00
1:35 PM,87.8,66.2,49,30.05,10.0,SSW,13.8,-,N/A,,Clear,200,2013-06-23 17:35:00
1:55 PM,87.8,66.2,49,30.04,10.0,SSW,12.7,-,N/A,,Clear,200,2013-06-23 17:55:00
2:15 PM,89.6,68.0,49,30.04,10.0,SW,13.8,19.6,N/A,,Clear,220,2013-06-23 18:15:00
2:35 PM,89.6,68.0,49,30.04,10.0,SSW,11.5,16.1,N/A,,Clear,200,2013-06-23 18:35:00
2:55 PM,89.6,69.8,52,30.03,10.0,SSW,13.8,18.4,N/A,,Clear,210,2013-06-23 18:55:00
3:15 PM,89.6,68.0,49,30.02,10.0,SSW,13.8,20.7,N/A,,Clear,210,2013-06-23 19:15:00
3:35 PM,89.6,68.0,49,30.02,10.0,SSW,12.7,19.6,N/A,,Clear,210,2013-06-23 19:35:00
3:55 PM,89.6,68.0,49,30.01,10.0,SW,15.0,21.9,N/A,,Clear,220,2013-06-23 19:55:00
4:15 PM,89.6,68.0,49,30.00,10.0,SW,12.7,19.6,N/A,,Clear,220,2013-06-23 20:15:00
4:35 PM,89.6,68.0,49,29.99,10.0,SSW,15.0,-,N/A,,Clear,210,2013-06-23 20:35:00
4:55 PM,89.6,66.2,46,29.99,10.0,SSW,11.5,21.9,N/A,,Clear,210,2013-06-23 20:55:00
5:15 PM,89.6,66.2,46,29.98,10.0,SSW,11.5,19.6,N/A,,Clear,210,2013-06-23 21:15:00
5:35 PM,87.8,66.2,49,29.98,10.0,SSW,12.7,17.3,N/A,,Clear,210,2013-06-23 21:35:00
5:55 PM,87.8,66.2,49,29.98,10.0,SSW,11.5,-,N/A,,Clear,210,2013-06-23 21:55:00
6:15 PM,87.8,64.4,46,30.00,10.0,SSW,10.4,18.4,N/A,,Clear,210,2013-06-23 22:15:00
6:35 PM,87.8,64.4,46,29.99,10.0,SSW,10.4,-,N/A,,Clear,210,2013-06-23 22:35:00
6:55 PM,84.2,64.4,51,29.99,10.0,SSW,10.4,-,N/A,,Clear,200,2013-06-23 22:55:00
7:15 PM,84.2,64.4,51,29.99,9.0,South,6.9,-,N/A,,Clear,190,2013-06-23 23:15:00
7:35 PM,82.4,64.4,54,30.00,10.0,South,5.8,-,N/A,,Clear,190,2013-06-23 23:35:00
7:55 PM,80.6,64.4,58,30.00,10.0,SSE,3.5,-,N/A,,Clear,160,2013-06-23 23:55:00
8:15 PM,80.6,64.4,58,30.00,10.0,South,5.8,-,N/A,,Clear,190,2013-06-24 00:15:00
8:35 PM,80.6,62.6,54,30.01,10.0,WSW,3.5,-,N/A,,Mostly Cloudy,240,2013-06-24 00:35:00
8:55 PM,80.6,62.6,54,30.02,10.0,SSW,4.6,-,N/A,,Partly Cloudy,200,2013-06-24 00:55:00
9:35 PM,78.8,62.6,57,30.04,10.0,Calm,Calm,-,N/A,,Clear,0,2013-06-24 01:35:00
9:55 PM,75.2,62.6,65,30.04,10.0,Calm,Calm,-,N/A,,Clear,0,2013-06-24 01:55:00